createdAt,value
2022-11-12T00:00:01.525Z,69.40
2022-11-12T00:04:57.985Z,69.67
2022-11-12T00:09:54.491Z,69.55
2022-11-12T00:14:55.392Z,69.49
2022-11-12T00:19:52.081Z,69.34
2022-11-12T00:24:48.511Z,69.27
2022-11-12T00:29:52.832Z,69.37
2022-11-12T00:35:00.294Z,69.22
2022-11-12T00:40:08.018Z,69.21
2022-11-12T00:45:05.010Z,68.99
2022-11-12T00:50:12.254Z,69.08
2022-11-12T00:55:11.128Z,68.93
2022-11-12T01:00:08.184Z,68.68
2022-11-12T01:05:16.581Z,68.50
2022-11-12T01:10:16.638Z,68.70
2022-11-12T01:15:13.275Z,68.67
2022-11-12T01:20:21.095Z,68.47
2022-11-12T01:25:23.948Z,68.26
2022-11-12T01:30:26.967Z,68.16
2022-11-12T01:35:31.072Z,68.05
2022-11-12T01:40:32.953Z,68.08
2022-11-12T01:45:34.828Z,67.89
2022-11-12T01:50:41.006Z,68.15
2022-11-12T01:55:47.879Z,67.73
2022-11-12T02:00:52.110Z,68.16
2022-11-12T02:05:56.128Z,67.89
2022-11-12T02:10:53.980Z,67.76
2022-11-12T02:16:03.424Z,67.39
2022-11-12T02:21:36.438Z,67.58
2022-11-12T02:26:39.548Z,67.48
2022-11-12T02:31:39.125Z,67.03
2022-11-12T02:36:35.574Z,66.58
2022-11-12T02:41:39.967Z,66.73
2022-11-12T02:46:36.450Z,66.53
2022-11-12T02:51:32.887Z,66.37
2022-11-12T02:56:29.357Z,66.46
2022-11-12T03:01:25.877Z,66.41
2022-11-12T03:06:22.428Z,66.63
2022-11-12T03:11:19.172Z,66.81
2022-11-12T03:16:15.454Z,66.68
2022-11-12T03:21:12.949Z,66.73
2022-11-12T03:26:09.632Z,67.05
2022-11-12T03:31:06.190Z,67.01
2022-11-12T03:36:03.068Z,67.00
2022-11-12T03:40:59.363Z,67.06
2022-11-12T03:45:55.815Z,67.26
2022-11-12T03:50:52.292Z,67.75
2022-11-12T03:55:57.656Z,67.82
2022-11-12T04:00:54.257Z,67.91
2022-11-12T04:06:09.674Z,67.72
2022-11-12T04:11:15.247Z,68.24
2022-11-12T04:16:34.983Z,68.08
2022-11-12T04:21:53.363Z,68.08
2022-11-12T04:26:53.655Z,68.19
2022-11-12T04:31:50.088Z,68.42
2022-11-12T04:36:46.537Z,68.72
2022-11-12T04:42:01.212Z,68.69
2022-11-12T04:46:57.674Z,68.56
2022-11-12T04:52:06.957Z,68.27
2022-11-12T04:57:03.416Z,68.74
2022-11-12T05:01:59.920Z,68.41
2022-11-12T05:06:57.084Z,68.58
2022-11-12T05:11:57.361Z,68.81
2022-11-12T05:16:53.784Z,68.95
2022-11-12T05:22:05.165Z,68.88
2022-11-12T05:27:02.260Z,68.90
2022-11-12T05:31:58.698Z,69.03
2022-11-12T05:36:55.176Z,69.08
2022-11-12T05:42:11.813Z,69.32
2022-11-12T05:47:09.252Z,69.13
2022-11-12T05:52:05.692Z,69.44
2022-11-12T05:57:02.133Z,68.98
2022-11-12T06:01:58.907Z,69.17
2022-11-12T06:06:55.417Z,69.46
2022-11-12T06:11:51.970Z,69.20
2022-11-12T06:16:48.539Z,69.25
2022-11-12T06:21:51.934Z,69.42
2022-11-12T06:26:49.800Z,69.71
2022-11-12T06:31:52.252Z,69.71
2022-11-12T06:36:49.171Z,69.72
2022-11-12T06:41:45.537Z,69.68
2022-11-12T06:46:42.024Z,69.69
2022-11-12T06:51:39.806Z,69.64
2022-11-12T06:56:36.287Z,69.66
2022-11-12T07:01:32.824Z,69.89
2022-11-12T07:06:29.307Z,69.65
2022-11-12T07:11:25.762Z,69.68
2022-11-12T07:16:22.415Z,69.70
2022-11-12T15:33:58.453Z,66.90
